»·PEaware :: N305EL KCOS-KABQ

N305EL :: KCOS-KABQ

FLIGHT INFORMATION

Flight Status: Arrived
Operator: Privately registered:
United States
More flights under this callsign
Pilot: Cullen C. (26241)
Aircraft: BEECH AIRCRAFT A90-E90 KING AIR
(BE9L)
More flights by this aircraft type
Origin: KCOS City Of Colorado Springs Mun
United States
Destination: KABQ Albuquerque Intl Sunport
United States
More flights between these airports :: More routes between these airports
Route: +BRK V83 PUB TAS
File this flight plan on PilotEdge
Remarks:
Altitude:
(Current/Filed)
18,000ft
Speed:
(Current/Filed)
200kts
Departed: 25-Oct-20 01:48 PM
Arrived: 25-Oct-20 02:47 PM
Distance/Time
Traveled:
243nm/0:58
Distance/Time
To Go:
Arrived

Flight Plot

Page will automatically refresh every two minutes.

Flight plan parsing failed; only flown route is shown


Map Options




Map Legend


Flown Route
Filed Route
Departure Airport
Arrival Airport
Navaid (VOR, NDB)
Fix

Horizontal Profiles

Position Reports

Time Latitude Longitude Heading Altitude Ground
Speed
25-Oct-20 13:32 38.808751 -104.720552 91 6098ft 0kts
25-Oct-20 13:33 38.808751 -104.720552 91 6098ft 0kts
25-Oct-20 13:34 38.808751 -104.720552 91 6098ft 0kts
25-Oct-20 13:35 38.808751 -104.720552 91 6098ft 0kts
25-Oct-20 13:36 38.808751 -104.720552 91 6098ft 0kts
25-Oct-20 13:37 38.808751 -104.720552 91 6098ft 0kts
25-Oct-20 13:38 38.808751 -104.720552 91 6098ft 0kts
25-Oct-20 13:39 38.808751 -104.720552 91 6098ft 0kts
25-Oct-20 13:40 38.808751 -104.720552 91 6098ft 0kts
25-Oct-20 13:41 38.808751 -104.720552 91 6098ft 0kts
25-Oct-20 13:42 38.808164 -104.720147 131 6098ft 0kts
25-Oct-20 13:43 38.806085 -104.717617 127 6098ft 13kts
25-Oct-20 13:44 38.801103 -104.717365 178 6098ft 22kts
25-Oct-20 13:45 38.794879 -104.717381 180 6098ft 21kts
25-Oct-20 13:46 38.794085 -104.717241 134 6098ft 1kts
25-Oct-20 13:47 38.808408 -104.715816 357 6772ft 130kts
25-Oct-20 13:48 38.855130 -104.710751 1 7896ft 182kts
25-Oct-20 13:49 38.906064 -104.702871 1 8892ft 185kts
25-Oct-20 13:50 38.955991 -104.689238 40 9877ft 198kts
25-Oct-20 13:51 38.937247 -104.628456 137 10895ft 206kts
25-Oct-20 13:52 38.899533 -104.573229 137 11919ft 204kts
25-Oct-20 13:53 38.854227 -104.547804 178 12945ft 175kts
25-Oct-20 13:54 38.806648 -104.536947 179 13973ft 173kts
25-Oct-20 13:55 38.759933 -104.526971 180 14992ft 171kts
25-Oct-20 13:56 38.713374 -104.517142 181 16018ft 169kts
25-Oct-20 13:57 38.667246 -104.507426 181 17042ft 167kts
25-Oct-20 13:58 38.621790 -104.497867 182 18068ft 164kts
25-Oct-20 13:59 38.577296 -104.488519 183 19093ft 160kts
25-Oct-20 14:00 38.534246 -104.479488 184 20099ft 156kts
25-Oct-20 14:01 38.485741 -104.469445 181 20173ft 194kts
25-Oct-20 14:02 38.382874 -104.447913 181 20183ft 208kts
25-Oct-20 14:03 38.271185 -104.440472 226 20179ft 186kts
25-Oct-20 14:04 38.185336 -104.517978 220 20179ft 190kts
25-Oct-20 14:05 38.098578 -104.596213 220 20177ft 191kts
25-Oct-20 14:06 38.012042 -104.674107 220 20175ft 191kts
25-Oct-20 14:07 37.925929 -104.751403 220 20173ft 191kts
25-Oct-20 14:08 37.839020 -104.829185 220 20180ft 191kts
25-Oct-20 14:09 37.751871 -104.906921 220 20156ft 192kts
25-Oct-20 14:10 37.663536 -104.985502 221 20036ft 196kts
25-Oct-20 14:11 37.573387 -105.065469 222 19936ft 200kts
25-Oct-20 14:12 37.481442 -105.146783 222 19870ft 204kts
25-Oct-20 14:13 37.388174 -105.229000 222 19868ft 205kts
25-Oct-20 14:14 37.294947 -105.310927 222 19866ft 205kts
25-Oct-20 14:15 37.201501 -105.392792 222 19866ft 205kts
25-Oct-20 14:16 37.107917 -105.474539 222 19829ft 205kts
25-Oct-20 14:17 37.014387 -105.556013 220 19881ft 204kts
25-Oct-20 14:18 36.921874 -105.636290 219 19901ft 205kts
25-Oct-20 14:19 36.827857 -105.717651 218 19913ft 207kts
25-Oct-20 14:20 36.732892 -105.799578 219 19921ft 208kts
25-Oct-20 14:21 36.637770 -105.881400 219 19919ft 208kts
25-Oct-20 14:22 36.531852 -105.941464 205 19918ft 213kts
25-Oct-20 14:23 36.420763 -105.991948 205 19917ft 213kts
25-Oct-20 14:24 36.309856 -106.042262 205 19894ft 213kts
25-Oct-20 14:25 36.200134 -106.091916 205 18526ft 211kts
25-Oct-20 14:26 36.087990 -106.142486 204 16521ft 217kts
25-Oct-20 14:27 35.974072 -106.193696 204 14504ft 219kts
25-Oct-20 14:28 35.904163 -106.225051 204 13271ft 220kts
25-Oct-20 14:29 35.801094 -106.271116 204 12903ft 196kts
25-Oct-20 14:30 35.702164 -106.315263 204 12905ft 184kts
25-Oct-20 14:31 35.607212 -106.357526 204 12904ft 180kts
25-Oct-20 14:32 35.513307 -106.399212 204 12899ft 179kts
25-Oct-20 14:33 35.419713 -106.440676 204 12891ft 178kts
25-Oct-20 14:35 35.326202 -106.481982 204 12878ft 178kts
25-Oct-20 14:36 35.236770 -106.530976 218 12870ft 174kts
25-Oct-20 14:37 35.155861 -106.600311 218 12209ft 190kts
25-Oct-20 14:38 35.096928 -106.652354 218 11134ft 203kts
25-Oct-20 14:39 35.051832 -106.693823 220 10274ft 196kts
25-Oct-20 14:40 35.052168 -106.753568 294 9253ft 189kts
25-Oct-20 14:41 35.072457 -106.801089 229 8602ft 122kts
25-Oct-20 14:42 35.041569 -106.799646 126 7118ft 127kts
25-Oct-20 14:43 35.039000 -106.750346 89 7296ft 161kts
25-Oct-20 14:44 35.045702 -106.699941 100 6582ft 139kts
25-Oct-20 14:45 35.044770 -106.653080 100 5828ft 143kts
25-Oct-20 14:46 35.044354 -106.611551 96 5314ft 84kts
25-Oct-20 14:47 35.044294 -106.603933 95 5316ft 4kts
25-Oct-20 14:48 35.045657 -106.602346 60 5318ft 1kts
25-Oct-20 14:49 35.045828 -106.593922 91 5323ft 21kts
25-Oct-20 14:50 35.048356 -106.592667 174 5324ft 4kts
25-Oct-20 14:51 35.048245 -106.592656 176 5324ft 0kts
25-Oct-20 14:52 35.048245 -106.592656 176 5324ft 0kts
25-Oct-20 14:53 35.048245 -106.592656 176 5324ft 0kts
25-Oct-20 14:53 35.048245 -106.592656 176 5324ft 0kts
25-Oct-20 14:54 35.048245 -106.592656 176 5324ft 0kts
25-Oct-20 14:55 35.048245 -106.592656 176 5324ft 0kts
25-Oct-20 14:56 35.048245 -106.592656 176 5324ft 0kts
25-Oct-20 14:57 35.048245 -106.592656 176 5324ft 0kts
25-Oct-20 14:58 35.048245 -106.592656 176 5324ft 0kts
25-Oct-20 14:59 35.048245 -106.592656 176 5324ft 0kts
25-Oct-20 15:00 35.048245 -106.592656 176 5324ft 0kts

Navigation Log

Ident Type
Flight plan parsing failed, navigation log unavailable